createdAt,value
2023-02-24T00:00:53.482Z,18.83
2023-02-24T00:03:58.173Z,17.73
2023-02-24T00:07:01.655Z,16.95
2023-02-24T00:10:04.729Z,27.95
2023-02-24T00:13:07.723Z,24.05
2023-02-24T00:16:10.391Z,17.55
2023-02-24T00:19:16.517Z,11.10
2023-02-24T00:22:20.591Z,9.13
2023-02-24T00:25:23.204Z,6.35
2023-02-24T00:28:26.165Z,5.18
2023-02-24T00:31:31.429Z,4.90
2023-02-24T00:34:36.937Z,6.68
2023-02-24T00:37:39.545Z,6.05
2023-02-24T00:40:45.490Z,8.10
2023-02-24T00:43:49.530Z,6.55
2023-02-24T00:46:52.527Z,7.72
2023-02-24T00:49:55.045Z,6.60
2023-02-24T00:52:57.671Z,6.82
2023-02-24T00:56:01.220Z,9.85
2023-02-24T00:59:03.907Z,8.30
2023-02-24T01:02:08.335Z,8.13
2023-02-24T01:05:12.333Z,7.70
2023-02-24T01:08:21.649Z,8.48
2023-02-24T01:11:47.812Z,6.25
2023-02-24T01:14:52.972Z,6.03
2023-02-24T01:17:55.793Z,8.13
2023-02-24T01:20:59.073Z,7.32
2023-02-24T01:24:01.712Z,5.65
2023-02-24T01:27:04.891Z,5.78
2023-02-24T01:30:16.530Z,7.20
2023-02-24T01:33:19.999Z,7.15
2023-02-24T01:36:26.122Z,6.63
2023-02-24T01:39:30.291Z,10.55
2023-02-24T01:42:33.088Z,9.32
2023-02-24T01:45:40.380Z,7.32
2023-02-24T01:51:51.734Z,6.65
2023-02-24T01:54:55.519Z,6.40
2023-02-24T01:57:59.694Z,7.90
2023-02-24T02:01:08.781Z,6.10
2023-02-24T02:04:23.403Z,6.93
2023-02-24T02:07:28.428Z,8.05
2023-02-24T02:10:32.148Z,6.68
2023-02-24T02:13:43.413Z,5.72
2023-02-24T02:17:08.206Z,7.10
2023-02-24T02:20:25.815Z,5.95
2023-02-24T02:27:11.644Z,6.25
2023-02-24T02:30:47.295Z,7.07
2023-02-24T02:34:05.703Z,7.97
2023-02-24T02:37:08.278Z,8.70
2023-02-24T02:40:20.148Z,9.27
2023-02-24T02:43:33.342Z,10.55
2023-02-24T02:46:41.591Z,7.50
2023-02-24T02:49:52.761Z,6.95
2023-02-24T02:53:00.653Z,6.88
2023-02-24T02:56:07.004Z,6.72
2023-02-24T02:59:12.913Z,7.32
2023-02-24T03:02:23.916Z,7.57
2023-02-24T03:05:37.352Z,10.63
2023-02-24T03:08:41.766Z,8.93
2023-02-24T03:11:53.295Z,6.90
2023-02-24T03:14:59.601Z,6.70
2023-02-24T03:18:11.589Z,7.00
2023-02-24T03:21:29.056Z,7.03
2023-02-24T03:24:39.129Z,8.02
2023-02-24T03:27:51.082Z,8.13
2023-02-24T03:31:00.448Z,8.32
2023-02-24T03:34:09.151Z,6.95
2023-02-24T03:37:11.871Z,6.47
2023-02-24T03:40:15.401Z,7.38
2023-02-24T03:43:19.951Z,8.18
2023-02-24T03:46:22.861Z,6.63
2023-02-24T03:49:25.593Z,6.32
2023-02-24T03:52:47.610Z,7.35
2023-02-24T03:56:33.466Z,8.00
2023-02-24T03:59:54.386Z,9.77
2023-02-24T04:03:06.032Z,9.93
2023-02-24T04:06:14.507Z,8.05
2023-02-24T04:09:17.893Z,5.35
2023-02-24T04:12:34.273Z,7.28
2023-02-24T04:15:47.938Z,8.38
2023-02-24T04:18:51.801Z,7.47
2023-02-24T04:21:55.445Z,7.25
2023-02-24T04:25:02.137Z,5.95
2023-02-24T04:28:08.222Z,7.20
2023-02-24T04:34:20.857Z,6.40
2023-02-24T04:37:25.187Z,6.50
2023-02-24T04:40:28.028Z,5.82
2023-02-24T04:43:30.674Z,5.20
2023-02-24T04:46:33.740Z,5.78
2023-02-24T04:49:36.486Z,5.82
2023-02-24T04:52:39.177Z,6.32
2023-02-24T04:55:48.910Z,4.28
2023-02-24T04:58:51.786Z,6.32
2023-02-24T05:01:55.600Z,5.63
2023-02-24T05:04:59.679Z,6.00
2023-02-24T05:08:10.231Z,4.78
2023-02-24T05:11:18.583Z,5.68
2023-02-24T05:14:21.508Z,6.38
2023-02-24T05:17:24.654Z,5.43
2023-02-24T05:20:46.856Z,6.40
2023-02-24T05:23:52.005Z,6.63
2023-02-24T05:26:58.770Z,5.68
2023-02-24T05:30:01.770Z,4.03
2023-02-24T05:33:04.952Z,5.07
2023-02-24T05:36:10.130Z,5.93
2023-02-24T05:39:19.342Z,4.40
2023-02-24T05:42:22.046Z,5.85
2023-02-24T05:45:30.524Z,7.38
2023-02-24T05:48:35.567Z,7.45
2023-02-24T05:51:39.403Z,6.93
2023-02-24T05:54:44.183Z,6.53
2023-02-24T05:57:46.968Z,9.13
2023-02-24T06:00:50.461Z,9.25
2023-02-24T06:03:54.737Z,8.30
2023-02-24T06:06:58.477Z,8.30
2023-02-24T06:10:02.070Z,5.78
2023-02-24T06:13:07.152Z,6.57
2023-02-24T06:16:13.059Z,5.93
2023-02-24T06:19:17.538Z,4.80
2023-02-24T06:22:23.210Z,7.47
2023-02-24T06:25:26.730Z,8.13
2023-02-24T06:28:29.338Z,8.20
2023-02-24T06:31:32.172Z,10.30
2023-02-24T06:34:36.268Z,11.05
2023-02-24T06:37:40.142Z,8.52
2023-02-24T06:40:42.929Z,8.77
2023-02-24T06:43:46.470Z,10.45
2023-02-24T06:46:49.073Z,9.48
2023-02-24T06:49:52.017Z,7.13
2023-02-24T06:53:01.108Z,8.82
2023-02-24T06:56:15.156Z,8.25
2023-02-24T06:59:38.665Z,7.57
2023-02-24T07:02:41.296Z,7.28
2023-02-24T07:05:50.526Z,8.45
2023-02-24T07:08:53.465Z,8.32
2023-02-24T07:11:57.002Z,7.82
2023-02-24T07:14:59.616Z,5.80
2023-02-24T07:18:03.384Z,5.47
2023-02-24T07:21:16.570Z,6.40
2023-02-24T07:24:25.374Z,7.10
2023-02-24T07:27:27.949Z,6.43
2023-02-24T07:30:33.619Z,6.43
2023-02-24T07:33:39.115Z,8.57
2023-02-24T07:36:49.509Z,9.48
2023-02-24T07:39:52.580Z,7.97
2023-02-24T07:42:56.372Z,8.55
2023-02-24T07:46:06.135Z,9.40
2023-02-24T07:49:12.972Z,9.05
2023-02-24T07:55:18.924Z,10.00
2023-02-24T07:58:23.620Z,9.43
2023-02-24T08:01:32.550Z,8.00
2023-02-24T08:04:36.617Z,7.18
2023-02-24T08:07:40.377Z,7.35
2023-02-24T08:10:43.138Z,9.40
2023-02-24T08:13:45.749Z,9.43
2023-02-24T08:16:50.055Z,8.80
2023-02-24T08:20:24.001Z,9.57
2023-02-24T08:23:26.728Z,8.18
2023-02-24T08:26:32.202Z,8.02
2023-02-24T08:29:40.516Z,8.02
2023-02-24T08:32:44.060Z,6.60
2023-02-24T08:35:52.609Z,6.40
2023-02-24T08:38:59.561Z,7.78
2023-02-24T08:42:03.156Z,7.10
2023-02-24T08:45:06.389Z,7.70
2023-02-24T08:48:18.508Z,7.35
2023-02-24T08:51:29.129Z,7.25
2023-02-24T08:54:32.415Z,7.22
2023-02-24T08:57:36.130Z,7.22
2023-02-24T09:00:50.936Z,9.20
2023-02-24T09:03:56.811Z,7.47
2023-02-24T09:07:11.352Z,6.50
2023-02-24T09:10:18.231Z,6.95
2023-02-24T09:13:20.964Z,9.65
2023-02-24T09:16:24.309Z,9.80
2023-02-24T09:19:40.661Z,8.25
2023-02-24T09:22:57.518Z,10.15
2023-02-24T09:26:11.430Z,7.83
2023-02-24T09:29:32.779Z,8.23
2023-02-24T09:32:35.475Z,5.75
2023-02-24T09:35:42.096Z,8.80
2023-02-24T09:39:02.390Z,7.90
2023-02-24T09:42:08.018Z,8.32
2023-02-24T09:45:33.324Z,9.43
2023-02-24T09:48:44.128Z,7.05
2023-02-24T09:51:53.563Z,7.22
2023-02-24T09:55:25.415Z,8.07
2023-02-24T09:58:43.393Z,9.88
2023-02-24T10:01:52.848Z,7.95
2023-02-24T10:05:07.661Z,8.95
2023-02-24T10:08:18.259Z,8.68
2023-02-24T10:11:33.227Z,8.57
2023-02-24T10:14:44.706Z,8.57
2023-02-24T10:21:19.032Z,9.10
2023-02-24T10:24:29.760Z,10.20
2023-02-24T10:27:58.613Z,19.95
2023-02-24T10:31:25.814Z,11.10
2023-02-24T10:34:34.753Z,9.65
2023-02-24T10:37:37.256Z,9.75
2023-02-24T10:40:57.061Z,8.90
2023-02-24T10:44:00.002Z,10.13
2023-02-24T10:47:12.010Z,10.20
2023-02-24T10:50:34.769Z,9.45
2023-02-24T10:53:37.977Z,9.70
2023-02-24T10:56:44.775Z,10.13
2023-02-24T11:00:06.244Z,11.82
2023-02-24T11:03:21.983Z,11.32
2023-02-24T11:06:41.722Z,9.85
2023-02-24T11:09:52.612Z,10.88
2023-02-24T11:13:14.894Z,11.43
2023-02-24T11:16:37.121Z,10.68
2023-02-24T11:19:50.984Z,10.68
2023-02-24T11:22:56.060Z,13.30
2023-02-24T11:26:18.568Z,12.60
2023-02-24T11:29:32.222Z,11.63
2023-02-24T11:33:11.178Z,10.25
2023-02-24T11:36:43.631Z,11.23
2023-02-24T11:39:50.687Z,11.43
2023-02-24T11:42:59.034Z,11.77
2023-02-24T11:46:08.494Z,10.65
2023-02-24T11:49:48.978Z,14.38
2023-02-24T11:52:52.865Z,13.70
2023-02-24T11:56:21.577Z,14.27
2023-02-24T11:59:34.056Z,12.80
2023-02-24T12:02:59.737Z,15.23
2023-02-24T12:06:12.804Z,13.88
2023-02-24T12:09:21.038Z,14.98
2023-02-24T12:13:14.680Z,16.92
2023-02-24T12:16:29.049Z,15.85
2023-02-24T12:19:52.054Z,16.35
2023-02-24T12:23:03.216Z,17.27
2023-02-24T12:26:09.351Z,19.02
2023-02-24T12:29:46.257Z,14.60
2023-02-24T12:33:19.609Z,16.95
2023-02-24T12:36:30.903Z,14.60
2023-02-24T12:39:42.455Z,14.70
2023-02-24T12:43:07.039Z,12.95
2023-02-24T12:46:19.508Z,12.95
2023-02-24T12:49:29.968Z,14.18
2023-02-24T12:52:35.793Z,11.65
2023-02-24T12:55:41.793Z,12.63
2023-02-24T12:58:46.871Z,10.65
2023-02-24T13:02:01.997Z,12.25
2023-02-24T13:05:38.310Z,12.77
2023-02-24T13:08:57.845Z,11.88
2023-02-24T13:12:13.189Z,11.13
2023-02-24T13:15:34.084Z,13.38
2023-02-24T13:18:40.242Z,11.45
2023-02-24T13:21:43.086Z,13.50
2023-02-24T13:24:54.873Z,13.00
2023-02-24T13:28:03.196Z,13.10
2023-02-24T13:31:09.344Z,14.18
2023-02-24T13:34:16.906Z,14.88
2023-02-24T13:37:39.979Z,13.35
2023-02-24T13:40:42.967Z,14.88
2023-02-24T13:44:19.870Z,13.77
2023-02-24T13:47:29.696Z,13.20
2023-02-24T13:50:57.613Z,12.07
2023-02-24T13:54:37.723Z,12.23
2023-02-24T13:58:11.252Z,13.82
2023-02-24T14:01:16.612Z,12.77
2023-02-24T14:04:24.973Z,14.65
2023-02-24T14:07:35.265Z,13.77
2023-02-24T14:10:39.186Z,13.05
2023-02-24T14:13:46.111Z,14.75
2023-02-24T14:16:51.000Z,13.48
2023-02-24T14:19:54.709Z,13.40
2023-02-24T14:23:01.802Z,12.85
2023-02-24T14:26:13.476Z,14.55
2023-02-24T14:29:23.627Z,15.20
2023-02-24T14:32:29.264Z,13.00
2023-02-24T14:35:58.365Z,11.98
2023-02-24T14:39:20.787Z,15.20
2023-02-24T14:42:23.892Z,16.05
2023-02-24T14:45:29.335Z,15.10
2023-02-24T14:48:32.151Z,16.35
2023-02-24T14:51:36.139Z,17.95
2023-02-24T14:54:43.426Z,16.42
2023-02-24T15:01:07.436Z,16.73
2023-02-24T15:04:33.660Z,16.10
2023-02-24T15:07:36.850Z,14.52
2023-02-24T15:10:39.470Z,17.75
2023-02-24T15:13:54.554Z,16.65
2023-02-24T15:17:00.761Z,16.40
2023-02-24T15:20:05.282Z,14.43
2023-02-24T15:23:27.049Z,15.70
2023-02-24T15:26:32.105Z,15.52
2023-02-24T15:29:35.615Z,16.52
2023-02-24T15:32:39.371Z,17.70
2023-02-24T15:35:49.253Z,16.92
2023-02-24T15:38:54.318Z,18.73
2023-02-24T15:42:20.019Z,19.35
2023-02-24T15:45:23.046Z,16.95
2023-02-24T15:48:31.359Z,16.80
2023-02-24T15:51:45.634Z,17.42
2023-02-24T15:54:48.488Z,17.67
2023-02-24T15:58:03.160Z,17.70
2023-02-24T16:01:05.912Z,15.15
2023-02-24T16:04:11.637Z,15.88
2023-02-24T16:07:32.778Z,25.25
2023-02-24T16:10:36.547Z,28.58
2023-02-24T16:13:39.769Z,23.77
2023-02-24T16:16:42.693Z,18.40
2023-02-24T16:19:45.449Z,17.38
2023-02-24T16:22:48.334Z,17.65
2023-02-24T16:25:53.979Z,18.63
2023-02-24T16:28:58.248Z,15.23
2023-02-24T16:32:01.341Z,17.50
2023-02-24T16:35:04.675Z,14.00
2023-02-24T16:38:07.694Z,14.18
2023-02-24T16:41:13.711Z,15.73
2023-02-24T16:44:19.693Z,13.07
2023-02-24T16:47:24.043Z,11.85
2023-02-24T16:50:31.564Z,12.50
2023-02-24T16:53:34.904Z,12.60
2023-02-24T16:56:38.382Z,13.23
2023-02-24T16:59:41.301Z,17.08
2023-02-24T17:02:45.393Z,17.55
2023-02-24T17:05:48.495Z,15.98
2023-02-24T17:08:51.500Z,15.05
2023-02-24T17:11:54.806Z,14.15
2023-02-24T17:14:59.633Z,14.77
2023-02-24T17:18:02.583Z,12.65
2023-02-24T17:21:05.753Z,15.43
2023-02-24T17:24:14.458Z,13.55
2023-02-24T17:27:17.270Z,13.57
2023-02-24T17:30:22.824Z,15.13
2023-02-24T17:33:25.608Z,15.02
2023-02-24T17:36:29.513Z,14.98
2023-02-24T17:39:33.073Z,16.45
2023-02-24T17:42:36.044Z,18.35
2023-02-24T17:45:43.518Z,20.90
2023-02-24T17:48:46.594Z,16.15
2023-02-24T17:51:49.342Z,21.85
2023-02-24T17:54:52.466Z,20.40
2023-02-24T17:57:57.159Z,18.73
2023-02-24T18:01:02.469Z,21.05
2023-02-24T18:04:05.278Z,16.90
2023-02-24T18:07:10.612Z,14.40
2023-02-24T18:10:13.846Z,13.15
2023-02-24T18:13:16.856Z,11.55
2023-02-24T18:16:19.924Z,13.40
2023-02-24T18:19:23.694Z,15.40
2023-02-24T18:22:29.432Z,15.95
2023-02-24T18:25:34.566Z,18.27
2023-02-24T18:28:38.370Z,17.40
2023-02-24T18:31:41.758Z,16.73
2023-02-24T18:34:44.928Z,22.85
2023-02-24T18:37:56.819Z,14.98
2023-02-24T18:41:05.234Z,13.52
2023-02-24T18:44:08.957Z,12.07
2023-02-24T18:47:12.273Z,11.25
2023-02-24T18:50:18.587Z,13.40
2023-02-24T18:53:22.994Z,15.07
2023-02-24T18:56:28.113Z,13.93
2023-02-24T18:59:31.816Z,12.57
2023-02-24T19:02:34.903Z,20.08
2023-02-24T19:05:39.009Z,22.30
2023-02-24T19:08:42.917Z,14.48
2023-02-24T19:11:46.266Z,12.70
2023-02-24T19:14:54.096Z,13.73
2023-02-24T19:17:57.657Z,16.55
2023-02-24T19:21:01.252Z,15.98
2023-02-24T19:24:09.240Z,15.02
2023-02-24T19:27:15.522Z,24.52
2023-02-24T19:30:19.297Z,20.27
2023-02-24T19:33:22.949Z,18.63
2023-02-24T19:36:25.968Z,16.60
2023-02-24T19:39:28.903Z,23.77
2023-02-24T19:42:32.528Z,27.88
2023-02-24T19:45:36.070Z,21.55
2023-02-24T19:48:39.568Z,25.27
2023-02-24T19:51:45.197Z,18.92
2023-02-24T19:54:49.607Z,23.20
2023-02-24T19:57:55.957Z,16.20
2023-02-24T20:01:10.372Z,18.90
2023-02-24T20:04:14.341Z,16.30
2023-02-24T20:07:18.386Z,13.45
2023-02-24T20:10:22.968Z,15.98
2023-02-24T20:13:27.113Z,15.15
2023-02-24T20:16:35.862Z,14.07
2023-02-24T20:19:39.806Z,16.58
2023-02-24T20:22:43.562Z,17.95
2023-02-24T20:25:56.656Z,18.92
2023-02-24T20:29:00.767Z,10.52
2023-02-24T20:32:04.734Z,8.68
2023-02-24T20:35:09.144Z,7.95
2023-02-24T20:38:12.624Z,4.55
2023-02-24T20:41:16.340Z,5.68
2023-02-24T20:44:19.780Z,2.60
2023-02-24T20:47:23.564Z,1.20
2023-02-24T20:50:27.390Z,1.52
2023-02-24T20:53:31.467Z,1.40
2023-02-24T20:56:36.707Z,1.70
2023-02-24T20:59:51.741Z,2.53
2023-02-24T21:03:01.600Z,1.95
2023-02-24T21:06:10.122Z,1.80
2023-02-24T21:09:15.481Z,3.45
2023-02-24T21:12:19.296Z,3.67
2023-02-24T21:15:22.612Z,2.65
2023-02-24T21:18:25.835Z,2.17
2023-02-24T21:21:29.611Z,2.20
2023-02-24T21:24:33.350Z,2.50
2023-02-24T21:27:38.480Z,2.95
2023-02-24T21:30:42.976Z,2.75
2023-02-24T21:33:51.171Z,3.28
2023-02-24T21:36:54.914Z,1.95
2023-02-24T21:39:57.906Z,1.38
2023-02-24T21:43:01.120Z,2.00
2023-02-24T21:46:06.016Z,1.10
2023-02-24T21:49:14.938Z,1.38
2023-02-24T21:52:18.533Z,2.22
2023-02-24T21:55:24.503Z,2.58
2023-02-24T21:58:27.184Z,10.10
2023-02-24T22:01:35.562Z,10.18
2023-02-24T22:04:38.634Z,12.23
2023-02-24T22:07:41.513Z,10.35
2023-02-24T22:10:44.547Z,11.73
2023-02-24T22:13:48.237Z,11.30
2023-02-24T22:16:51.217Z,9.27
2023-02-24T22:19:56.851Z,11.55
2023-02-24T22:22:59.585Z,12.63
2023-02-24T22:26:04.840Z,15.40
2023-02-24T22:29:08.272Z,21.23
2023-02-24T22:32:11.506Z,11.10
2023-02-24T22:35:14.302Z,9.77
2023-02-24T22:38:17.127Z,15.65
2023-02-24T22:41:22.013Z,16.58
2023-02-24T22:44:25.277Z,12.35
2023-02-24T22:47:28.029Z,12.60
2023-02-24T22:50:30.633Z,6.65
2023-02-24T22:53:39.842Z,5.10
2023-02-24T22:56:42.644Z,6.93
2023-02-24T22:59:45.556Z,4.00
2023-02-24T23:02:48.145Z,6.13
2023-02-24T23:06:01.487Z,2.45
2023-02-24T23:09:05.569Z,2.13
2023-02-24T23:12:11.444Z,2.47
2023-02-24T23:15:14.763Z,5.03
2023-02-24T23:18:17.694Z,2.25
2023-02-24T23:21:23.727Z,2.22
2023-02-24T23:24:26.287Z,2.40
2023-02-24T23:27:28.853Z,1.33
2023-02-24T23:30:32.033Z,1.45
2023-02-24T23:33:34.810Z,1.83
2023-02-24T23:36:39.728Z,0.85
2023-02-24T23:39:42.927Z,1.63
2023-02-24T23:42:46.545Z,3.22
2023-02-24T23:45:49.635Z,0.80
2023-02-24T23:48:53.536Z,12.57
2023-02-24T23:51:56.261Z,2.70
2023-02-24T23:54:58.904Z,13.40
2023-02-24T23:58:02.884Z,10.20
